createdAt,value
2023-03-22T00:02:15.089Z,29.40
2023-03-22T00:04:43.424Z,30.00
2023-03-22T00:07:11.301Z,27.70
2023-03-22T00:09:38.559Z,27.73
2023-03-22T00:12:06.813Z,25.98
2023-03-22T00:14:34.223Z,26.02
2023-03-22T00:17:02.165Z,27.77
2023-03-22T00:19:29.641Z,26.58
2023-03-22T00:21:57.525Z,24.65
2023-03-22T00:24:24.830Z,27.92
2023-03-22T00:26:52.891Z,24.55
2023-03-22T00:29:22.561Z,25.55
2023-03-22T00:31:52.257Z,25.27
2023-03-22T00:34:19.747Z,27.98
2023-03-22T00:36:48.506Z,26.02
2023-03-22T00:39:16.039Z,26.15
2023-03-22T00:41:44.289Z,26.40
2023-03-22T00:44:12.571Z,28.60
2023-03-22T00:46:40.470Z,28.25
2023-03-22T00:49:07.865Z,29.73
2023-03-22T00:51:36.181Z,32.67
2023-03-22T00:54:03.597Z,30.70
2023-03-22T00:56:34.039Z,26.48
2023-03-22T00:59:10.174Z,26.13
2023-03-22T01:01:39.089Z,29.35
2023-03-22T01:04:07.147Z,27.17
2023-03-22T01:06:35.612Z,27.88
2023-03-22T01:09:03.736Z,25.30
2023-03-22T01:11:31.686Z,26.60
2023-03-22T01:13:59.780Z,26.02
2023-03-22T01:16:27.768Z,25.77
2023-03-22T01:18:56.352Z,27.88
2023-03-22T01:21:24.299Z,30.80
2023-03-22T01:23:51.804Z,29.98
2023-03-22T01:26:19.947Z,25.30
2023-03-22T01:28:47.530Z,29.27
2023-03-22T01:31:15.545Z,27.48
2023-03-22T01:33:43.126Z,29.45
2023-03-22T01:36:11.568Z,28.35
2023-03-22T01:38:42.427Z,28.52
2023-03-22T01:41:10.706Z,29.50
2023-03-22T01:43:41.418Z,29.83
2023-03-22T01:46:09.481Z,32.53
2023-03-22T01:48:46.117Z,33.58
2023-03-22T01:51:24.963Z,33.50
2023-03-22T01:54:29.546Z,37.95
2023-03-22T01:57:03.579Z,39.40
2023-03-22T01:59:40.922Z,32.58
2023-03-22T02:02:19.389Z,32.75
2023-03-22T02:04:58.190Z,31.27
2023-03-22T02:07:31.954Z,32.13
2023-03-22T02:10:05.117Z,31.80
2023-03-22T02:13:05.945Z,31.05
2023-03-22T02:16:38.346Z,31.25
2023-03-22T02:20:07.794Z,29.33
2023-03-22T02:23:09.202Z,29.38
2023-03-22T02:26:10.693Z,32.28
2023-03-22T02:29:22.010Z,31.52
2023-03-22T02:32:29.839Z,31.38
2023-03-22T02:35:39.636Z,30.55
2023-03-22T02:39:06.990Z,31.98
2023-03-22T02:41:56.294Z,32.70
2023-03-22T02:44:42.354Z,37.05
2023-03-22T02:47:34.601Z,37.38
2023-03-22T02:50:49.986Z,37.63
2023-03-22T02:53:22.645Z,35.75
2023-03-22T02:56:00.239Z,36.80
2023-03-22T02:58:38.220Z,32.35
2023-03-22T03:01:13.437Z,35.25
2023-03-22T03:03:42.518Z,32.08
2023-03-22T03:06:16.967Z,28.88
2023-03-22T03:08:50.784Z,30.15
2023-03-22T03:11:20.489Z,31.08
2023-03-22T03:13:50.962Z,29.10
2023-03-22T03:16:26.693Z,28.98
2023-03-22T03:19:01.918Z,28.17
2023-03-22T03:21:49.570Z,28.48
2023-03-22T03:24:36.907Z,28.33
2023-03-22T03:27:16.179Z,26.95
2023-03-22T03:30:03.965Z,27.60
2023-03-22T03:32:53.606Z,27.85
2023-03-22T03:35:27.724Z,25.77
2023-03-22T03:38:10.094Z,26.42
2023-03-22T03:40:52.032Z,26.52
2023-03-22T03:43:25.638Z,23.77
2023-03-22T03:45:56.215Z,25.30
2023-03-22T03:48:29.285Z,24.77
2023-03-22T03:53:26.468Z,23.38
2023-03-22T03:55:54.015Z,23.70
2023-03-22T03:58:22.641Z,21.15
2023-03-22T04:00:51.036Z,21.38
2023-03-22T04:03:21.990Z,20.70
2023-03-22T04:06:09.060Z,22.85
2023-03-22T04:08:41.538Z,20.95
2023-03-22T04:11:09.587Z,24.23
2023-03-22T04:13:38.269Z,20.05
2023-03-22T04:16:11.257Z,21.27
2023-03-22T04:18:39.366Z,21.50
2023-03-22T04:21:09.403Z,20.83
2023-03-22T04:23:49.419Z,21.05
2023-03-22T04:26:19.637Z,22.25
2023-03-22T04:28:58.651Z,21.00
2023-03-22T04:31:27.108Z,19.00
2023-03-22T04:34:05.734Z,17.98
2023-03-22T04:36:55.307Z,21.23
2023-03-22T04:39:28.362Z,20.17
2023-03-22T04:42:16.002Z,17.88
2023-03-22T04:44:45.898Z,18.58
2023-03-22T04:47:13.631Z,19.05
2023-03-22T04:49:42.234Z,19.83
2023-03-22T04:52:10.424Z,19.80
2023-03-22T04:54:39.457Z,20.85
2023-03-22T04:57:07.592Z,19.35
2023-03-22T04:59:42.566Z,20.25
2023-03-22T05:02:10.692Z,18.77
2023-03-22T05:04:43.194Z,18.10
2023-03-22T05:07:31.168Z,16.98
2023-03-22T05:10:03.847Z,19.75
2023-03-22T05:12:32.007Z,19.08
2023-03-22T05:15:18.039Z,18.20
2023-03-22T05:17:46.214Z,21.88
2023-03-22T05:20:14.881Z,19.13
2023-03-22T05:22:45.565Z,20.52
2023-03-22T05:25:13.518Z,20.02
2023-03-22T05:27:44.698Z,18.48
2023-03-22T05:30:33.959Z,20.75
2023-03-22T05:33:09.866Z,22.35
2023-03-22T05:35:43.880Z,22.10
2023-03-22T05:38:12.137Z,21.90
2023-03-22T05:40:45.555Z,20.83
2023-03-22T05:43:13.960Z,21.90
2023-03-22T05:45:46.519Z,37.85
2023-03-22T05:48:29.673Z,33.95
2023-03-22T05:50:57.602Z,26.80
2023-03-22T05:53:25.457Z,24.90
2023-03-22T05:56:17.212Z,23.63
2023-03-22T05:58:46.999Z,35.38
2023-03-22T06:01:20.589Z,28.80
2023-03-22T06:03:49.031Z,24.98
2023-03-22T06:06:28.372Z,26.13
2023-03-22T06:09:16.364Z,56.25
2023-03-22T06:11:48.519Z,30.20
2023-03-22T06:14:17.277Z,31.95
2023-03-22T06:16:59.110Z,31.50
2023-03-22T06:19:26.782Z,29.35
2023-03-22T06:21:55.554Z,34.97
2023-03-22T06:24:26.048Z,32.63
2023-03-22T06:27:03.690Z,31.50
2023-03-22T06:29:32.308Z,30.48
2023-03-22T06:32:04.289Z,31.52
2023-03-22T06:34:32.591Z,31.48
2023-03-22T06:37:01.556Z,37.78
2023-03-22T06:39:41.151Z,29.95
2023-03-22T06:42:10.733Z,29.48
2023-03-22T06:44:39.366Z,30.85
2023-03-22T06:47:15.132Z,29.50
2023-03-22T06:50:10.195Z,25.45
2023-03-22T06:52:56.490Z,28.90
2023-03-22T06:55:24.374Z,25.83
2023-03-22T06:57:52.696Z,26.50
2023-03-22T07:00:20.856Z,24.35
2023-03-22T07:02:49.980Z,26.88
2023-03-22T07:05:34.049Z,29.63
2023-03-22T07:08:02.133Z,27.48
2023-03-22T07:10:30.320Z,29.25
2023-03-22T07:12:58.790Z,30.10
2023-03-22T07:15:26.271Z,28.48
2023-03-22T07:18:04.901Z,30.05
2023-03-22T07:20:38.653Z,26.80
2023-03-22T07:23:10.924Z,28.08
2023-03-22T07:25:48.296Z,27.52
2023-03-22T07:28:26.995Z,28.98
2023-03-22T07:31:06.271Z,26.40
2023-03-22T07:33:44.999Z,29.50
2023-03-22T07:36:13.092Z,29.65
2023-03-22T07:38:41.327Z,27.73
2023-03-22T07:41:14.021Z,34.30
2023-03-22T07:44:17.884Z,28.75
2023-03-22T07:47:09.389Z,36.22
2023-03-22T07:49:46.064Z,40.15
2023-03-22T07:52:16.744Z,37.17
2023-03-22T07:54:44.760Z,37.88
2023-03-22T07:57:13.733Z,36.25
2023-03-22T07:59:47.481Z,46.13
2023-03-22T08:02:16.258Z,34.22
2023-03-22T08:04:55.769Z,37.90
2023-03-22T08:07:37.587Z,28.80
2023-03-22T08:10:06.681Z,32.33
2023-03-22T08:12:36.371Z,29.10
2023-03-22T08:15:13.476Z,30.17
2023-03-22T08:17:42.584Z,31.48
2023-03-22T08:20:18.770Z,23.15
2023-03-22T08:22:55.201Z,25.88
2023-03-22T08:25:54.146Z,24.80
2023-03-22T08:28:22.798Z,21.05
2023-03-22T08:30:51.733Z,19.77
2023-03-22T08:33:23.796Z,21.98
2023-03-22T08:35:53.383Z,24.58
2023-03-22T08:38:21.005Z,21.92
2023-03-22T08:41:03.572Z,24.58
2023-03-22T08:43:31.466Z,22.08
2023-03-22T08:45:59.888Z,25.45
2023-03-22T08:48:29.902Z,21.83
2023-03-22T08:51:13.408Z,21.50
2023-03-22T08:53:52.261Z,28.40
2023-03-22T08:56:38.986Z,17.83
2023-03-22T08:59:27.243Z,29.95
2023-03-22T09:02:13.716Z,23.17
2023-03-22T09:04:41.609Z,19.80
2023-03-22T09:07:09.763Z,21.38
2023-03-22T09:09:37.960Z,19.77
2023-03-22T09:12:06.929Z,20.60
2023-03-22T09:14:37.587Z,19.17
2023-03-22T09:17:10.328Z,22.48
2023-03-22T09:19:37.965Z,19.45
2023-03-22T09:22:06.201Z,22.05
2023-03-22T09:24:42.242Z,21.90
2023-03-22T09:27:10.506Z,18.55
2023-03-22T09:29:39.309Z,19.65
2023-03-22T09:32:14.652Z,20.35
2023-03-22T09:34:43.774Z,26.90
2023-03-22T09:37:13.335Z,21.23
2023-03-22T09:39:47.492Z,16.73
2023-03-22T09:42:44.558Z,18.33
2023-03-22T09:45:30.153Z,17.85
2023-03-22T09:48:00.221Z,18.45
2023-03-22T09:50:32.864Z,18.25
2023-03-22T09:53:02.941Z,15.73
2023-03-22T09:56:06.922Z,14.77
2023-03-22T09:59:02.791Z,17.50
2023-03-22T10:01:52.927Z,16.65
2023-03-22T10:07:41.460Z,15.73
2023-03-22T10:10:21.408Z,14.30
2023-03-22T10:13:14.317Z,15.35
2023-03-22T10:15:59.399Z,16.17
2023-03-22T10:18:37.663Z,15.15
2023-03-22T10:21:20.643Z,15.10
2023-03-22T10:24:18.488Z,14.38
2023-03-22T10:26:49.560Z,15.10
2023-03-22T10:29:41.459Z,12.48
2023-03-22T10:32:45.235Z,16.13
2023-03-22T10:35:19.553Z,14.02
2023-03-22T10:37:53.448Z,13.90
2023-03-22T10:40:34.982Z,11.32
2023-03-22T10:43:17.673Z,11.05
2023-03-22T10:45:48.742Z,14.55
2023-03-22T10:48:25.904Z,12.02
2023-03-22T10:50:55.559Z,11.07
2023-03-22T10:53:42.600Z,10.30
2023-03-22T10:56:19.122Z,11.18
2023-03-22T10:58:50.547Z,10.35
2023-03-22T11:01:52.255Z,10.07
2023-03-22T11:04:23.750Z,9.32
2023-03-22T11:06:56.239Z,9.88
2023-03-22T11:09:27.419Z,9.40
2023-03-22T11:12:02.457Z,11.07
2023-03-22T11:14:47.436Z,9.27
2023-03-22T11:17:31.541Z,9.82
2023-03-22T11:20:09.541Z,9.38
2023-03-22T11:22:45.678Z,8.48
2023-03-22T11:25:19.411Z,8.15
2023-03-22T11:28:19.491Z,9.25
2023-03-22T11:31:07.789Z,8.35
2023-03-22T11:33:36.943Z,9.63
2023-03-22T11:36:19.199Z,7.00
2023-03-22T11:38:48.894Z,7.10
2023-03-22T11:41:29.253Z,7.75
2023-03-22T11:44:03.016Z,8.35
2023-03-22T11:46:33.131Z,9.13
2023-03-22T11:49:07.910Z,7.85
2023-03-22T11:52:16.998Z,7.50
2023-03-22T11:54:47.824Z,7.18
2023-03-22T11:57:27.905Z,8.43
2023-03-22T12:00:15.590Z,6.90
2023-03-22T12:02:56.347Z,7.95
2023-03-22T12:05:31.274Z,6.60
2023-03-22T12:08:47.550Z,8.00
2023-03-22T12:11:46.786Z,7.57
2023-03-22T12:14:26.320Z,8.55
2023-03-22T12:17:08.909Z,7.95
2023-03-22T12:20:02.230Z,7.45
2023-03-22T12:22:40.038Z,7.65
2023-03-22T12:25:35.633Z,7.13
2023-03-22T12:28:12.807Z,6.53
2023-03-22T12:30:47.461Z,6.38
2023-03-22T12:33:26.916Z,6.88
2023-03-22T12:36:03.369Z,7.57
2023-03-22T12:38:56.055Z,6.53
2023-03-22T12:41:37.739Z,7.05
2023-03-22T12:44:17.530Z,6.38
2023-03-22T12:47:05.066Z,7.80
2023-03-22T12:49:54.521Z,6.45
2023-03-22T12:52:45.161Z,7.15
2023-03-22T12:55:36.850Z,8.27
2023-03-22T12:58:10.939Z,5.78
2023-03-22T13:01:19.501Z,7.82
2023-03-22T13:03:55.067Z,7.10
2023-03-22T13:06:37.856Z,6.07
2023-03-22T13:09:35.625Z,8.02
2023-03-22T13:12:18.298Z,7.32
2023-03-22T13:14:50.106Z,6.88
2023-03-22T13:17:45.685Z,7.80
2023-03-22T13:20:15.035Z,6.20
2023-03-22T13:22:48.160Z,6.35
2023-03-22T13:25:19.930Z,5.85
2023-03-22T13:28:20.804Z,6.37
2023-03-22T13:30:52.856Z,7.88
2023-03-22T13:33:31.226Z,4.40
2023-03-22T13:36:26.176Z,5.85
2023-03-22T13:39:03.164Z,5.43
2023-03-22T13:41:34.101Z,4.80
2023-03-22T13:44:46.263Z,4.63
2023-03-22T13:47:47.535Z,4.65
2023-03-22T13:50:30.396Z,5.18
2023-03-22T13:53:34.330Z,3.60
2023-03-22T13:56:07.671Z,5.07
2023-03-22T13:58:53.147Z,3.65
2023-03-22T14:01:36.990Z,4.60
2023-03-22T14:04:12.456Z,3.60
2023-03-22T14:07:00.206Z,3.83
2023-03-22T14:09:45.762Z,4.22
2023-03-22T14:12:31.228Z,5.03
2023-03-22T14:15:04.920Z,4.57
2023-03-22T14:17:52.941Z,5.07
2023-03-22T14:20:25.796Z,4.45
